sensor_id;sensor_type;location;lat;lon;timestamp;pressure;altitude;pressure_sealevel;temperature;humidity
55289;BME280;41154;45.394;5.734;2023-03-26T16:34:56;96214.66;;;8.90;100.00
55289;BME280;41154;45.394;5.734;2023-03-26T16:37:46;96215.19;;;8.92;100.00
55289;BME280;41154;45.394;5.734;2023-03-26T16:43:02;96202.84;;;8.86;100.00
55289;BME280;41154;45.394;5.734;2023-03-26T16:45:36;96200.22;;;8.91;100.00
55289;BME280;41154;45.394;5.734;2023-03-26T16:53:47;96191.97;;;8.98;100.00
55289;BME280;41154;45.394;5.734;2023-03-26T16:58:58;96182.53;;;8.85;100.00
55289;BME280;41154;45.394;5.734;2023-03-26T17:04:48;96156.56;;;8.80;100.00
55289;BME280;41154;45.394;5.734;2023-03-26T17:19:56;96144.50;;;8.73;100.00
55289;BME280;41154;45.394;5.734;2023-03-26T17:26:33;96142.75;;;8.51;100.00
55289;BME280;41154;45.394;5.734;2023-03-26T17:29:25;96147.09;;;8.62;100.00
55289;BME280;41154;45.394;5.734;2023-03-26T17:32:07;96141.13;;;8.50;100.00
55289;BME280;41154;45.394;5.734;2023-03-26T17:42:12;96136.47;;;8.35;100.00
55289;BME280;41154;45.394;5.734;2023-03-26T17:44:54;96142.09;;;8.34;100.00
55289;BME280;41154;45.394;5.734;2023-03-26T17:51:35;96145.69;;;8.50;100.00
55289;BME280;41154;45.394;5.734;2023-03-26T17:54:36;96138.94;;;8.42;100.00
55289;BME280;41154;45.394;5.734;2023-03-26T17:57:48;96132.16;;;8.29;100.00
55289;BME280;41154;45.394;5.734;2023-03-26T18:03:40;96128.75;;;8.39;100.00
55289;BME280;41154;45.394;5.734;2023-03-26T18:06:18;96131.84;;;8.58;100.00
55289;BME280;41154;45.394;5.734;2023-03-26T18:09:28;96122.88;;;8.42;100.00
55289;BME280;41154;45.394;5.734;2023-03-26T18:15:33;96123.81;;;8.20;100.00
55289;BME280;41154;45.394;5.734;2023-03-26T18:18:31;96117.94;;;8.23;100.00
55289;BME280;41154;45.394;5.734;2023-03-26T18:20:58;96114.69;;;8.16;100.00
55289;BME280;41154;45.394;5.734;2023-03-26T18:23:44;96109.31;;;8.11;100.00
55289;BME280;41154;45.394;5.734;2023-03-26T18:26:21;96108.25;;;8.12;100.00
55289;BME280;41154;45.394;5.734;2023-03-26T18:28:53;96113.28;;;8.08;100.00
55289;BME280;41154;45.394;5.734;2023-03-26T18:31:23;96105.00;;;8.05;100.00
55289;BME280;41154;45.394;5.734;2023-03-26T18:33:53;96106.56;;;8.01;100.00
55289;BME280;41154;45.394;5.734;2023-03-26T18:36:23;96114.50;;;7.90;100.00
55289;BME280;41154;45.394;5.734;2023-03-26T18:38:48;96114.97;;;7.82;100.00
55289;BME280;41154;45.394;5.734;2023-03-26T18:41:30;96127.16;;;8.05;100.00
55289;BME280;41154;45.394;5.734;2023-03-26T18:44:05;96122.03;;;7.99;100.00
55289;BME280;41154;45.394;5.734;2023-03-26T18:46:32;96123.00;;;7.82;100.00
55289;BME280;41154;45.394;5.734;2023-03-26T18:49:02;96130.44;;;7.80;100.00
55289;BME280;41154;45.394;5.734;2023-03-26T18:51:28;96129.78;;;7.68;100.00
55289;BME280;41154;45.394;5.734;2023-03-26T18:53:57;96133.59;;;7.77;100.00
55289;BME280;41154;45.394;5.734;2023-03-26T18:58:56;96134.41;;;7.50;100.00
55289;BME280;41154;45.394;5.734;2023-03-26T19:01:24;96128.53;;;7.48;100.00
55289;BME280;41154;45.394;5.734;2023-03-26T19:03:56;96125.53;;;7.17;100.00
55289;BME280;41154;45.394;5.734;2023-03-26T19:06:24;96125.97;;;7.31;100.00
55289;BME280;41154;45.394;5.734;2023-03-26T19:08:51;96116.06;;;7.05;100.00
55289;BME280;41154;45.394;5.734;2023-03-26T19:11:17;96110.41;;;7.01;100.00
55289;BME280;41154;45.394;5.734;2023-03-26T19:13:49;96112.31;;;7.06;100.00
55289;BME280;41154;45.394;5.734;2023-03-26T19:16:25;96117.09;;;7.04;100.00
55289;BME280;41154;45.394;5.734;2023-03-26T19:18:53;96121.53;;;7.42;100.00
55289;BME280;41154;45.394;5.734;2023-03-26T19:21:19;96130.09;;;7.44;100.00
55289;BME280;41154;45.394;5.734;2023-03-26T19:23:48;96113.25;;;7.16;100.00
55289;BME280;41154;45.394;5.734;2023-03-26T19:26:14;96109.91;;;7.04;100.00
55289;BME280;41154;45.394;5.734;2023-03-26T19:28:43;96109.31;;;6.97;100.00
55289;BME280;41154;45.394;5.734;2023-03-26T19:31:31;96107.13;;;6.94;100.00
55289;BME280;41154;45.394;5.734;2023-03-26T19:39:24;96117.66;;;6.83;100.00
55289;BME280;41154;45.394;5.734;2023-03-26T19:41:51;96121.50;;;6.93;100.00
55289;BME280;41154;45.394;5.734;2023-03-26T19:44:25;96124.69;;;6.90;100.00
55289;BME280;41154;45.394;5.734;2023-03-26T19:47:00;96120.53;;;6.77;100.00
55289;BME280;41154;45.394;5.734;2023-03-26T19:49:49;96109.34;;;7.24;100.00
55289;BME280;41154;45.394;5.734;2023-03-26T19:54:52;96123.81;;;6.84;100.00
55289;BME280;41154;45.394;5.734;2023-03-26T19:57:20;96113.41;;;6.82;100.00
55289;BME280;41154;45.394;5.734;2023-03-26T19:59:50;96116.72;;;6.95;100.00
55289;BME280;41154;45.394;5.734;2023-03-26T20:02:17;96114.41;;;7.26;100.00
55289;BME280;41154;45.394;5.734;2023-03-26T20:04:42;96113.16;;;7.06;100.00
55289;BME280;41154;45.394;5.734;2023-03-26T20:07:15;96110.34;;;7.18;100.00
55289;BME280;41154;45.394;5.734;2023-03-26T20:09:43;96112.16;;;7.12;100.00
55289;BME280;41154;45.394;5.734;2023-03-26T20:12:10;96110.41;;;7.01;100.00
55289;BME280;41154;45.394;5.734;2023-03-26T20:14:36;96101.31;;;6.97;100.00
55289;BME280;41154;45.394;5.734;2023-03-26T20:17:02;96104.56;;;7.04;100.00
55289;BME280;41154;45.394;5.734;2023-03-26T20:19:28;96098.94;;;7.00;100.00
55289;BME280;41154;45.394;5.734;2023-03-26T20:21:55;96106.16;;;7.00;100.00
55289;BME280;41154;45.394;5.734;2023-03-26T20:24:21;96102.56;;;6.89;100.00
55289;BME280;41154;45.394;5.734;2023-03-26T20:26:49;96110.53;;;6.67;100.00
55289;BME280;41154;45.394;5.734;2023-03-26T20:29:15;96106.22;;;6.83;100.00
55289;BME280;41154;45.394;5.734;2023-03-26T20:31:41;96112.38;;;6.89;100.00
55289;BME280;41154;45.394;5.734;2023-03-26T20:34:19;96117.56;;;6.73;100.00
55289;BME280;41154;45.394;5.734;2023-03-26T20:36:46;96112.06;;;6.41;100.00
55289;BME280;41154;45.394;5.734;2023-03-26T20:39:18;96113.47;;;6.65;100.00
55289;BME280;41154;45.394;5.734;2023-03-26T20:41:47;96110.91;;;6.54;100.00
55289;BME280;41154;45.394;5.734;2023-03-26T20:44:16;96119.59;;;6.66;100.00
55289;BME280;41154;45.394;5.734;2023-03-26T20:46:43;96120.28;;;6.78;100.00
55289;BME280;41154;45.394;5.734;2023-03-26T20:49:09;96117.09;;;6.20;100.00
55289;BME280;41154;45.394;5.734;2023-03-26T20:51:37;96122.19;;;6.22;100.00
55289;BME280;41154;45.394;5.734;2023-03-26T20:54:04;96119.91;;;6.14;100.00
55289;BME280;41154;45.394;5.734;2023-03-26T20:56:33;96122.25;;;6.10;100.00
55289;BME280;41154;45.394;5.734;2023-03-26T20:59:02;96122.81;;;6.12;100.00
55289;BME280;41154;45.394;5.734;2023-03-26T21:01:28;96130.31;;;6.32;100.00
55289;BME280;41154;45.394;5.734;2023-03-26T21:03:54;96129.22;;;6.11;100.00
55289;BME280;41154;45.394;5.734;2023-03-26T21:06:21;96129.22;;;5.82;100.00
55289;BME280;41154;45.394;5.734;2023-03-26T21:08:47;96142.53;;;5.65;100.00
55289;BME280;41154;45.394;5.734;2023-03-26T21:11:19;96128.97;;;5.67;100.00
55289;BME280;41154;45.394;5.734;2023-03-26T21:14:05;96127.63;;;5.81;100.00
55289;BME280;41154;45.394;5.734;2023-03-26T21:16:32;96133.84;;;5.87;100.00
55289;BME280;41154;45.394;5.734;2023-03-26T21:18:58;96135.53;;;5.93;100.00
55289;BME280;41154;45.394;5.734;2023-03-26T21:24:34;96149.84;;;5.58;100.00
55289;BME280;41154;45.394;5.734;2023-03-26T21:30:18;96169.91;;;5.49;100.00
55289;BME280;41154;45.394;5.734;2023-03-26T21:32:44;96174.28;;;5.55;100.00
55289;BME280;41154;45.394;5.734;2023-03-26T21:35:12;96175.94;;;5.44;100.00
55289;BME280;41154;45.394;5.734;2023-03-26T21:37:43;96186.69;;;5.37;100.00
55289;BME280;41154;45.394;5.734;2023-03-26T21:40:12;96193.16;;;5.42;100.00
55289;BME280;41154;45.394;5.734;2023-03-26T21:42:43;96199.75;;;5.39;100.00
55289;BME280;41154;45.394;5.734;2023-03-26T21:45:10;96198.19;;;5.26;100.00
55289;BME280;41154;45.394;5.734;2023-03-26T21:47:36;96221.63;;;5.41;100.00
55289;BME280;41154;45.394;5.734;2023-03-26T21:50:04;96212.03;;;5.28;100.00
55289;BME280;41154;45.394;5.734;2023-03-26T21:52:31;96214.03;;;5.21;100.00
55289;BME280;41154;45.394;5.734;2023-03-26T21:54:58;96226.41;;;5.15;100.00
55289;BME280;41154;45.394;5.734;2023-03-26T22:00:26;96237.13;;;5.32;100.00
55289;BME280;41154;45.394;5.734;2023-03-26T22:05:45;96252.44;;;5.01;100.00
55289;BME280;41154;45.394;5.734;2023-03-26T22:08:37;96257.41;;;5.10;100.00
55289;BME280;41154;45.394;5.734;2023-03-26T22:11:05;96268.16;;;5.03;100.00
55289;BME280;41154;45.394;5.734;2023-03-26T22:13:31;96273.25;;;5.04;100.00
55289;BME280;41154;45.394;5.734;2023-03-26T22:15:59;96279.72;;;4.97;100.00
55289;BME280;41154;45.394;5.734;2023-03-26T22:18:25;96289.78;;;5.07;100.00
55289;BME280;41154;45.394;5.734;2023-03-26T22:20:55;96294.97;;;5.13;100.00
55289;BME280;41154;45.394;5.734;2023-03-26T22:23:22;96305.00;;;5.23;100.00
55289;BME280;41154;45.394;5.734;2023-03-26T22:25:48;96312.88;;;5.18;100.00
55289;BME280;41154;45.394;5.734;2023-03-26T22:28:14;96322.81;;;5.11;100.00
55289;BME280;41154;45.394;5.734;2023-03-26T22:30:41;96335.78;;;5.19;100.00
55289;BME280;41154;45.394;5.734;2023-03-26T22:33:07;96334.16;;;5.18;100.00
55289;BME280;41154;45.394;5.734;2023-03-26T22:35:37;96347.31;;;5.36;100.00
55289;BME280;41154;45.394;5.734;2023-03-26T22:38:03;96358.28;;;5.40;100.00
55289;BME280;41154;45.394;5.734;2023-03-26T22:40:29;96373.34;;;5.22;100.00
55289;BME280;41154;45.394;5.734;2023-03-26T22:42:55;96371.59;;;5.16;100.00
55289;BME280;41154;45.394;5.734;2023-03-26T22:45:21;96381.06;;;5.48;100.00
55289;BME280;41154;45.394;5.734;2023-03-26T22:47:47;96395.06;;;5.55;100.00
55289;BME280;41154;45.394;5.734;2023-03-26T22:50:13;96403.97;;;5.49;100.00
55289;BME280;41154;45.394;5.734;2023-03-26T22:52:39;96412.50;;;5.03;100.00
55289;BME280;41154;45.394;5.734;2023-03-26T22:55:06;96411.38;;;5.47;100.00
55289;BME280;41154;45.394;5.734;2023-03-26T22:57:32;96419.34;;;5.47;100.00
55289;BME280;41154;45.394;5.734;2023-03-26T22:59:58;96429.75;;;5.48;100.00
55289;BME280;41154;45.394;5.734;2023-03-26T23:02:37;96440.63;;;5.47;100.00
55289;BME280;41154;45.394;5.734;2023-03-26T23:05:02;96451.72;;;5.32;100.00
55289;BME280;41154;45.394;5.734;2023-03-26T23:07:28;96459.59;;;5.27;100.00
55289;BME280;41154;45.394;5.734;2023-03-26T23:09:56;96464.94;;;5.50;100.00
55289;BME280;41154;45.394;5.734;2023-03-26T23:12:23;96471.94;;;5.21;100.00
55289;BME280;41154;45.394;5.734;2023-03-26T23:14:48;96479.34;;;5.31;100.00
55289;BME280;41154;45.394;5.734;2023-03-26T23:17:18;96496.72;;;5.45;100.00
55289;BME280;41154;45.394;5.734;2023-03-26T23:19:43;96502.16;;;5.62;100.00
55289;BME280;41154;45.394;5.734;2023-03-26T23:22:09;96497.31;;;5.59;100.00
55289;BME280;41154;45.394;5.734;2023-03-26T23:24:35;96504.59;;;5.52;100.00
55289;BME280;41154;45.394;5.734;2023-03-26T23:27:04;96511.09;;;5.02;100.00
55289;BME280;41154;45.394;5.734;2023-03-26T23:29:31;96535.31;;;5.24;100.00
55289;BME280;41154;45.394;5.734;2023-03-26T23:31:58;96538.13;;;5.41;100.00
55289;BME280;41154;45.394;5.734;2023-03-26T23:34:24;96549.34;;;5.01;100.00
55289;BME280;41154;45.394;5.734;2023-03-26T23:36:50;96553.25;;;5.29;100.00
55289;BME280;41154;45.394;5.734;2023-03-26T23:39:17;96556.81;;;5.34;100.00
55289;BME280;41154;45.394;5.734;2023-03-26T23:41:44;96569.63;;;4.95;100.00
55289;BME280;41154;45.394;5.734;2023-03-26T23:44:10;96576.91;;;4.70;100.00
55289;BME280;41154;45.394;5.734;2023-03-26T23:46:41;96588.13;;;4.72;100.00
55289;BME280;41154;45.394;5.734;2023-03-26T23:49:07;96595.56;;;4.81;100.00
55289;BME280;41154;45.394;5.734;2023-03-26T23:51:35;96599.72;;;4.77;100.00
55289;BME280;41154;45.394;5.734;2023-03-26T23:54:02;96606.38;;;4.68;100.00
55289;BME280;41154;45.394;5.734;2023-03-26T23:56:29;96606.91;;;4.58;100.00
55289;BME280;41154;45.394;5.734;2023-03-26T23:58:57;96610.47;;;4.45;100.00
